Terminal Aerodrome Forecast
Issued by NWS

Home | Current Version | Previous Version | Text Only | Print | Product List | Glossary On
Versions: 1 2 3 4 5 6 7 8 9 10 11 12 13 14 15 16 17 18 19
133
FTUS41 KPHI 230134 AAA
TAFMIV
TAF AMD
KMIV 230134Z 2302/2324 25005KT P6SM -SHRA FEW110 BKN200
     FM230300 20006KT P6SM BKN050
     FM230900 26007KT P6SM VCTS SCT050 BKN070CB
      TEMPO 2309/2313 VRB12G25KT 4SM -TSRA SCT020 BKN040CB
     FM231400 32006KT P6SM BKN050
     FM231600 32004KT P6SM BKN050
     FM232000 12005KT P6SM BKN080=

USA.gov is the U.S. government's official web portal to all federal, state and local government web resources and services.